»·PEaware :: FDX1841 KSEA-KSFO

FDX1841 :: KSEA-KSFO

FLIGHT INFORMATION

Flight Status: Arrived
Operator:
Federal Express
More flights by this operator :: More flights under this callsign
Pilot: Will K. (13011)
Aircraft: Unknown
(B77L)
More flights by this aircraft type
Origin: KSEA Seattle-Tacoma Intl
United States
Destination: KSFO San Francisco Intl
United States
More flights between these airports :: More routes between these airports
Route: HAROB6 FEPOT Q3 FOWND MLBEC BDEGA2
File this flight plan on PilotEdge
Remarks:
Altitude:
(Current/Filed)
35,000ft
Speed:
(Current/Filed)
350kts
Departed: 03-May-18 03:54 PM
Arrived: 03-May-18 05:36 PM
Distance/Time
Traveled:
589nm/1:42
Distance/Time
To Go:
Arrived

Flight Plot

Page will automatically refresh every two minutes.

Flight plan parsing failed; only flown route is shown


Map Options




Map Legend


Flown Route
Filed Route
Departure Airport
Arrival Airport
Navaid (VOR, NDB)
Fix

Horizontal Profiles

Position Reports

Time Latitude Longitude Heading Altitude Ground
Speed
03-May-18 15:25 47.461042 -122.302718 180 446ft 0kts
03-May-18 15:26 47.461042 -122.302718 180 446ft 0kts
03-May-18 15:27 47.461042 -122.302718 180 446ft 0kts
03-May-18 15:28 47.461042 -122.302718 180 446ft 0kts
03-May-18 15:29 47.461042 -122.302718 180 446ft 0kts
03-May-18 15:30 47.461042 -122.302718 180 446ft 0kts
03-May-18 15:31 47.461042 -122.302718 180 446ft 0kts
03-May-18 15:32 47.461042 -122.302718 180 446ft 0kts
03-May-18 15:33 47.461042 -122.302718 180 446ft 0kts
03-May-18 15:34 47.461042 -122.302718 180 446ft 0kts
03-May-18 15:35 47.461042 -122.302718 180 446ft 0kts
03-May-18 15:36 47.461042 -122.302718 180 446ft 0kts
03-May-18 15:37 47.461042 -122.302718 180 446ft 0kts
03-May-18 15:38 47.461042 -122.302718 180 446ft 0kts
03-May-18 15:39 47.461042 -122.302718 180 446ft 0kts
03-May-18 15:40 47.461084 -122.302718 180 446ft 1kts
03-May-18 15:41 47.461688 -122.302533 217 446ft 2kts
03-May-18 15:42 47.461830 -122.302030 270 446ft 2kts
03-May-18 15:43 47.461830 -122.302030 270 446ft 1kts
03-May-18 15:44 47.461830 -122.302030 270 446ft 0kts
03-May-18 15:45 47.461830 -122.302030 270 446ft 0kts
03-May-18 15:46 47.461830 -122.302030 270 446ft 0kts
03-May-18 15:47 47.461830 -122.302030 270 446ft 0kts
03-May-18 15:48 47.461826 -122.304488 268 446ft 7kts
03-May-18 15:49 47.462159 -122.306044 342 446ft 0kts
03-May-18 15:50 47.462159 -122.306044 342 446ft 0kts
03-May-18 15:51 47.463134 -122.306155 355 446ft 0kts
03-May-18 15:52 47.463626 -122.307035 259 446ft 5kts
03-May-18 15:53 47.460428 -122.307819 182 446ft 71kts
03-May-18 15:54 47.413391 -122.304971 178 2328ft 211kts
03-May-18 15:55 47.349778 -122.318610 184 5175ft 252kts
03-May-18 15:56 47.308501 -122.396759 261 8228ft 278kts
03-May-18 15:57 47.308535 -122.514359 273 11302ft 308kts
03-May-18 15:58 47.312857 -122.653545 271 13696ft 365kts
03-May-18 16:00 47.305042 -122.805689 255 17171ft 381kts
03-May-18 16:01 47.266452 -122.954774 248 20364ft 398kts
03-May-18 16:02 47.200705 -123.087926 223 23121ft 418kts
03-May-18 16:03 47.103742 -123.188879 208 25684ft 440kts
03-May-18 16:04 46.979113 -123.216568 183 28119ft 467kts
03-May-18 16:05 46.847332 -123.211532 182 30332ft 479kts
03-May-18 16:06 46.715453 -123.206744 182 32949ft 470kts
03-May-18 16:07 46.585768 -123.202373 182 34981ft 465kts
03-May-18 16:08 46.456418 -123.198087 182 35257ft 465kts
03-May-18 16:09 46.326646 -123.193819 182 35264ft 465kts
03-May-18 16:10 46.197336 -123.189594 182 35266ft 465kts
03-May-18 16:11 46.067956 -123.185377 182 35256ft 465kts
03-May-18 16:12 45.938126 -123.181169 182 35242ft 467kts
03-May-18 16:13 45.808040 -123.176972 182 35224ft 468kts
03-May-18 16:14 45.678015 -123.172798 182 35202ft 468kts
03-May-18 16:15 45.547374 -123.168623 182 35202ft 468kts
03-May-18 16:16 45.417146 -123.164481 182 35213ft 469kts
03-May-18 16:17 45.286318 -123.160338 182 35214ft 470kts
03-May-18 16:18 45.155792 -123.156227 182 35210ft 470kts
03-May-18 16:19 45.025047 -123.152123 182 35216ft 471kts
03-May-18 16:20 44.893713 -123.148021 182 35214ft 471kts
03-May-18 16:21 44.762690 -123.143933 182 35221ft 472kts
03-May-18 16:22 44.631540 -123.139880 182 35239ft 472kts
03-May-18 16:23 44.501505 -123.135946 183 35251ft 456kts
03-May-18 16:24 44.374721 -123.131413 182 35247ft 456kts
03-May-18 16:25 44.247452 -123.126841 182 35248ft 456kts
03-May-18 16:26 44.120684 -123.122328 182 35249ft 456kts
03-May-18 16:27 43.993815 -123.117820 182 35247ft 456kts
03-May-18 16:28 43.865908 -123.113312 182 35244ft 460kts
03-May-18 16:29 43.738076 -123.108828 182 35238ft 460kts
03-May-18 16:30 43.610081 -123.104358 182 35233ft 460kts
03-May-18 16:31 43.481562 -123.099889 182 35230ft 461kts
03-May-18 16:32 43.353390 -123.095452 182 35228ft 462kts
03-May-18 16:33 43.224676 -123.091013 182 35228ft 462kts
03-May-18 16:34 43.096043 -123.086595 182 35235ft 463kts
03-May-18 16:35 42.967245 -123.082189 182 35242ft 464kts
03-May-18 16:36 42.837865 -123.077783 182 35252ft 464kts
03-May-18 16:37 42.708718 -123.073390 182 35258ft 465kts
03-May-18 16:38 42.580975 -123.069084 182 35251ft 466kts
03-May-18 16:39 42.450916 -123.064813 182 35221ft 467kts
03-May-18 16:40 42.321165 -123.060561 182 35203ft 467kts
03-May-18 16:41 42.191303 -123.056379 182 35210ft 467kts
03-May-18 16:42 42.060948 -123.052173 182 35222ft 467kts
03-May-18 16:43 41.930928 -123.048005 182 35231ft 470kts
03-May-18 16:44 41.799422 -123.043813 182 35235ft 471kts
03-May-18 16:45 41.668319 -123.039654 182 35246ft 472kts
03-May-18 16:46 41.537107 -123.035489 182 35248ft 472kts
03-May-18 16:47 41.405254 -123.031346 182 35244ft 473kts
03-May-18 16:48 41.273715 -123.027336 182 35267ft 474kts
03-May-18 16:49 41.141484 -123.023307 182 35256ft 475kts
03-May-18 16:50 41.009471 -123.019332 182 35239ft 475kts
03-May-18 16:51 40.877304 -123.015341 182 35223ft 476kts
03-May-18 16:52 40.744542 -123.011366 182 35213ft 477kts
03-May-18 16:53 40.611817 -123.007411 182 35215ft 477kts
03-May-18 16:54 40.479074 -123.003474 182 35218ft 478kts
03-May-18 16:55 40.345683 -122.999531 182 35224ft 479kts
03-May-18 16:56 40.212636 -122.995614 182 35226ft 479kts
03-May-18 16:57 40.079465 -122.991708 182 35241ft 479kts
03-May-18 16:58 39.945798 -122.987816 182 35227ft 481kts
03-May-18 16:59 39.811619 -122.983901 182 35225ft 483kts
03-May-18 17:00 39.677105 -122.980001 182 35219ft 478kts
03-May-18 17:01 39.547963 -122.976275 182 34375ft 456kts
03-May-18 17:01 39.442995 -122.973257 182 33256ft 450kts
03-May-18 17:03 39.298340 -122.969098 182 31752ft 440kts
03-May-18 17:04 39.177069 -122.965638 182 30471ft 432kts
03-May-18 17:05 39.057590 -122.962567 182 29335ft 424kts
03-May-18 17:06 38.939509 -122.960257 182 29233ft 425kts
03-May-18 17:07 38.821730 -122.944729 169 28779ft 429kts
03-May-18 17:07 38.724746 -122.914505 169 27196ft 427kts
03-May-18 17:08 38.610150 -122.880680 169 25532ft 418kts
03-May-18 17:09 38.498056 -122.847597 169 23854ft 410kts
03-May-18 17:10 38.388252 -122.815353 168 22325ft 398kts
03-May-18 17:11 38.281642 -122.784176 168 20800ft 388kts
03-May-18 17:12 38.177712 -122.753791 168 19276ft 379kts
03-May-18 17:13 38.076696 -122.724464 167 16608ft 366kts
03-May-18 17:14 37.979310 -122.696294 166 14634ft 357kts
03-May-18 17:15 37.886452 -122.656330 153 13090ft 349kts
03-May-18 17:16 37.813087 -122.581083 136 11602ft 328kts
03-May-18 17:17 37.747826 -122.512581 139 11199ft 299kts
03-May-18 17:18 37.683857 -122.444571 138 11010ft 298kts
03-May-18 17:19 37.620185 -122.377051 138 11001ft 299kts
03-May-18 17:20 37.556182 -122.310166 139 11006ft 299kts
03-May-18 17:21 37.492779 -122.243975 139 10184ft 290kts
03-May-18 17:22 37.431441 -122.178907 139 7890ft 285kts
03-May-18 17:23 37.372397 -122.115306 139 6072ft 266kts
03-May-18 17:24 37.324040 -122.051136 103 5074ft 250kts
03-May-18 17:25 37.363163 -122.002196 350 5010ft 225kts
03-May-18 17:26 37.416002 -122.037095 314 5046ft 205kts
03-May-18 17:27 37.450702 -122.081642 313 4715ft 156kts
03-May-18 17:28 37.480483 -122.118542 313 3124ft 152kts
03-May-18 17:29 37.511140 -122.155366 313 3037ft 152kts
03-May-18 17:30 37.541838 -122.192117 313 3018ft 152kts
03-May-18 17:31 37.568734 -122.232122 287 2986ft 149kts
03-May-18 17:32 37.582349 -122.281334 293 1975ft 148kts
03-May-18 17:33 37.599903 -122.325319 297 922ft 136kts
03-May-18 17:34 37.616972 -122.365448 298 27ft 92kts
03-May-18 17:35 37.620802 -122.374441 297 26ft 18kts
03-May-18 17:36 37.623063 -122.376137 298 26ft 10kts
03-May-18 17:37 37.624653 -122.379962 297 26ft 14kts
03-May-18 17:38 37.626325 -122.383947 297 26ft 12kts
03-May-18 17:39 37.627937 -122.387841 298 26ft 13kts
03-May-18 17:40 37.629631 -122.391785 313 26ft 12kts
03-May-18 17:41 37.632107 -122.391491 4 26ft 8kts
03-May-18 17:42 37.634335 -122.389487 75 26ft 12kts
03-May-18 17:43 37.635602 -122.387183 69 26ft 0kts
03-May-18 17:44 37.635602 -122.387183 69 26ft 0kts
03-May-18 17:45 37.635602 -122.387183 69 26ft 0kts
03-May-18 17:46 37.635602 -122.387183 69 26ft 0kts
03-May-18 17:47 37.635602 -122.387183 69 26ft 0kts
03-May-18 17:48 37.635602 -122.387183 69 26ft 0kts
03-May-18 17:49 37.635602 -122.387183 69 26ft 0kts

Navigation Log

Ident Type
Flight plan parsing failed, navigation log unavailable